sensor_id;sensor_type;location;lat;lon;timestamp;pressure;altitude;pressure_sealevel;temperature;humidity
27202;BME280;14717;46.924;15.474;2023-10-31T00:00:21;96379.88;;;16.62;96.38
27202;BME280;14717;46.924;15.474;2023-10-31T00:02:46;96381.41;;;16.60;97.22
27202;BME280;14717;46.924;15.474;2023-10-31T00:05:12;96379.78;;;16.59;97.68
27202;BME280;14717;46.924;15.474;2023-10-31T00:07:37;96397.47;;;16.66;95.56
27202;BME280;14717;46.924;15.474;2023-10-31T00:10:02;96395.22;;;16.71;96.72
27202;BME280;14717;46.924;15.474;2023-10-31T00:12:28;96399.88;;;16.67;96.21
27202;BME280;14717;46.924;15.474;2023-10-31T00:14:53;96411.03;;;16.67;97.07
27202;BME280;14717;46.924;15.474;2023-10-31T00:17:18;96407.97;;;16.54;99.04
27202;BME280;14717;46.924;15.474;2023-10-31T00:19:44;96396.13;;;16.41;100.00
27202;BME280;14717;46.924;15.474;2023-10-31T00:22:09;96388.81;;;16.33;100.00
27202;BME280;14717;46.924;15.474;2023-10-31T00:24:35;96377.88;;;16.44;98.80
27202;BME280;14717;46.924;15.474;2023-10-31T00:27:00;96371.72;;;16.54;96.78
27202;BME280;14717;46.924;15.474;2023-10-31T00:29:25;96372.66;;;16.61;96.44
27202;BME280;14717;46.924;15.474;2023-10-31T00:31:51;96374.28;;;16.62;95.03
27202;BME280;14717;46.924;15.474;2023-10-31T00:34:16;96368.78;;;16.65;96.26
27202;BME280;14717;46.924;15.474;2023-10-31T00:36:41;96363.50;;;16.61;95.81
27202;BME280;14717;46.924;15.474;2023-10-31T00:39:07;96377.50;;;16.64;96.23
27202;BME280;14717;46.924;15.474;2023-10-31T00:41:32;96377.44;;;16.61;96.06
27202;BME280;14717;46.924;15.474;2023-10-31T00:43:57;96382.28;;;16.63;96.16
27202;BME280;14717;46.924;15.474;2023-10-31T00:46:23;96399.75;;;16.61;96.07
27202;BME280;14717;46.924;15.474;2023-10-31T00:48:48;96396.75;;;16.69;95.74
27202;BME280;14717;46.924;15.474;2023-10-31T00:51:13;96400.44;;;16.73;94.57
27202;BME280;14717;46.924;15.474;2023-10-31T00:53:39;96394.56;;;16.78;94.91
27202;BME280;14717;46.924;15.474;2023-10-31T00:56:04;96390.50;;;16.75;94.91
27202;BME280;14717;46.924;15.474;2023-10-31T00:58:30;96385.28;;;16.74;94.76
27202;BME280;14717;46.924;15.474;2023-10-31T01:00:55;96378.19;;;16.76;94.45
27202;BME280;14717;46.924;15.474;2023-10-31T01:03:21;96379.22;;;16.68;95.70
27202;BME280;14717;46.924;15.474;2023-10-31T01:05:46;96383.31;;;16.74;94.58
27202;BME280;14717;46.924;15.474;2023-10-31T01:08:11;96369.38;;;16.74;95.33
27202;BME280;14717;46.924;15.474;2023-10-31T01:10:37;96383.31;;;16.74;94.93
27202;BME280;14717;46.924;15.474;2023-10-31T01:13:02;96389.28;;;16.73;94.28
27202;BME280;14717;46.924;15.474;2023-10-31T01:15:27;96393.28;;;16.75;94.32
27202;BME280;14717;46.924;15.474;2023-10-31T01:17:52;96399.66;;;16.76;94.28
27202;BME280;14717;46.924;15.474;2023-10-31T01:20:18;96399.31;;;16.77;94.34
27202;BME280;14717;46.924;15.474;2023-10-31T01:22:43;96411.94;;;16.71;96.17
27202;BME280;14717;46.924;15.474;2023-10-31T01:25:09;96429.47;;;16.72;97.30
27202;BME280;14717;46.924;15.474;2023-10-31T01:27:34;96429.63;;;16.60;99.29
27202;BME280;14717;46.924;15.474;2023-10-31T01:30:00;96429.13;;;16.55;99.12
27202;BME280;14717;46.924;15.474;2023-10-31T01:32:25;96432.91;;;16.47;100.00
27202;BME280;14717;46.924;15.474;2023-10-31T01:34:51;96431.13;;;16.39;100.00
27202;BME280;14717;46.924;15.474;2023-10-31T01:37:16;96435.09;;;16.38;100.00
27202;BME280;14717;46.924;15.474;2023-10-31T01:39:44;96422.00;;;16.23;100.00
27202;BME280;14717;46.924;15.474;2023-10-31T01:42:09;96417.88;;;16.17;100.00
27202;BME280;14717;46.924;15.474;2023-10-31T01:44:35;96430.84;;;15.94;100.00
27202;BME280;14717;46.924;15.474;2023-10-31T01:47:00;96419.88;;;16.01;100.00
27202;BME280;14717;46.924;15.474;2023-10-31T01:49:26;96420.72;;;15.86;100.00
27202;BME280;14717;46.924;15.474;2023-10-31T01:51:51;96414.84;;;15.91;100.00
27202;BME280;14717;46.924;15.474;2023-10-31T01:54:17;96399.84;;;15.80;100.00
27202;BME280;14717;46.924;15.474;2023-10-31T01:56:42;96407.69;;;15.75;100.00
27202;BME280;14717;46.924;15.474;2023-10-31T01:59:08;96407.97;;;15.70;100.00
27202;BME280;14717;46.924;15.474;2023-10-31T02:01:43;96403.47;;;15.66;100.00
27202;BME280;14717;46.924;15.474;2023-10-31T02:04:09;96394.31;;;15.65;100.00
27202;BME280;14717;46.924;15.474;2023-10-31T02:06:34;96392.69;;;15.64;100.00
27202;BME280;14717;46.924;15.474;2023-10-31T02:09:00;96378.69;;;15.61;100.00
27202;BME280;14717;46.924;15.474;2023-10-31T02:11:25;96382.47;;;15.68;100.00
27202;BME280;14717;46.924;15.474;2023-10-31T02:13:50;96370.53;;;15.68;100.00
27202;BME280;14717;46.924;15.474;2023-10-31T02:16:15;96374.00;;;15.80;100.00
27202;BME280;14717;46.924;15.474;2023-10-31T02:18:41;96389.19;;;15.82;100.00
27202;BME280;14717;46.924;15.474;2023-10-31T02:21:06;96381.34;;;15.88;100.00
27202;BME280;14717;46.924;15.474;2023-10-31T02:23:31;96382.16;;;15.88;100.00
27202;BME280;14717;46.924;15.474;2023-10-31T02:25:57;96377.50;;;15.92;100.00
27202;BME280;14717;46.924;15.474;2023-10-31T02:28:22;96381.88;;;15.93;100.00
27202;BME280;14717;46.924;15.474;2023-10-31T02:30:52;96374.69;;;15.92;100.00
27202;BME280;14717;46.924;15.474;2023-10-31T02:33:18;96358.28;;;15.87;100.00
27202;BME280;14717;46.924;15.474;2023-10-31T02:35:43;96350.78;;;15.91;100.00
27202;BME280;14717;46.924;15.474;2023-10-31T02:38:08;96342.44;;;15.91;100.00
27202;BME280;14717;46.924;15.474;2023-10-31T02:40:33;96323.81;;;15.95;100.00
27202;BME280;14717;46.924;15.474;2023-10-31T02:42:59;96286.81;;;15.95;100.00
27202;BME280;14717;46.924;15.474;2023-10-31T02:45:24;96282.13;;;15.99;100.00
27202;BME280;14717;46.924;15.474;2023-10-31T02:47:49;96242.38;;;16.02;100.00
27202;BME280;14717;46.924;15.474;2023-10-31T02:50:15;96250.00;;;16.05;100.00
27202;BME280;14717;46.924;15.474;2023-10-31T02:52:40;96257.84;;;15.99;100.00
27202;BME280;14717;46.924;15.474;2023-10-31T02:55:06;96243.50;;;15.97;100.00
27202;BME280;14717;46.924;15.474;2023-10-31T02:57:31;96216.66;;;15.89;100.00
27202;BME280;14717;46.924;15.474;2023-10-31T02:59:56;96208.31;;;15.89;100.00
27202;BME280;14717;46.924;15.474;2023-10-31T03:02:22;96185.00;;;15.78;100.00
27202;BME280;14717;46.924;15.474;2023-10-31T03:04:47;96191.34;;;15.79;100.00
27202;BME280;14717;46.924;15.474;2023-10-31T03:07:12;96205.56;;;15.74;100.00
27202;BME280;14717;46.924;15.474;2023-10-31T03:09:38;96208.47;;;15.77;100.00
27202;BME280;14717;46.924;15.474;2023-10-31T03:12:03;96198.19;;;15.81;100.00
27202;BME280;14717;46.924;15.474;2023-10-31T03:14:28;96215.03;;;15.88;100.00
27202;BME280;14717;46.924;15.474;2023-10-31T03:16:54;96221.88;;;15.91;100.00
27202;BME280;14717;46.924;15.474;2023-10-31T03:19:19;96235.06;;;15.94;100.00
27202;BME280;14717;46.924;15.474;2023-10-31T03:21:44;96255.78;;;15.96;100.00
27202;BME280;14717;46.924;15.474;2023-10-31T03:24:10;96259.66;;;15.92;100.00
27202;BME280;14717;46.924;15.474;2023-10-31T03:26:35;96252.59;;;15.94;100.00
27202;BME280;14717;46.924;15.474;2023-10-31T03:29:00;96263.28;;;15.92;100.00
27202;BME280;14717;46.924;15.474;2023-10-31T03:31:26;96266.94;;;15.96;100.00
27202;BME280;14717;46.924;15.474;2023-10-31T03:33:51;96277.00;;;16.01;100.00
27202;BME280;14717;46.924;15.474;2023-10-31T03:36:18;96286.72;;;15.91;100.00
27202;BME280;14717;46.924;15.474;2023-10-31T03:38:43;96295.53;;;15.93;100.00
27202;BME280;14717;46.924;15.474;2023-10-31T03:41:08;96292.00;;;15.77;100.00
27202;BME280;14717;46.924;15.474;2023-10-31T03:43:34;96295.06;;;15.73;100.00
27202;BME280;14717;46.924;15.474;2023-10-31T03:45:59;96287.00;;;15.68;100.00
27202;BME280;14717;46.924;15.474;2023-10-31T03:48:25;96273.25;;;15.59;100.00
27202;BME280;14717;46.924;15.474;2023-10-31T03:50:50;96278.25;;;15.69;100.00
27202;BME280;14717;46.924;15.474;2023-10-31T03:53:16;96278.19;;;15.66;100.00
27202;BME280;14717;46.924;15.474;2023-10-31T03:55:41;96275.84;;;15.68;100.00
27202;BME280;14717;46.924;15.474;2023-10-31T03:58:07;96266.66;;;15.48;100.00
27202;BME280;14717;46.924;15.474;2023-10-31T04:00:32;96257.78;;;15.43;100.00
27202;BME280;14717;46.924;15.474;2023-10-31T04:02:58;96266.28;;;15.50;100.00
27202;BME280;14717;46.924;15.474;2023-10-31T04:05:23;96251.03;;;15.44;100.00
27202;BME280;14717;46.924;15.474;2023-10-31T04:07:49;96256.88;;;15.39;100.00
27202;BME280;14717;46.924;15.474;2023-10-31T04:10:14;96259.38;;;15.44;100.00
27202;BME280;14717;46.924;15.474;2023-10-31T04:12:40;96257.03;;;15.46;100.00
27202;BME280;14717;46.924;15.474;2023-10-31T04:15:07;96267.88;;;15.51;100.00
27202;BME280;14717;46.924;15.474;2023-10-31T04:17:33;96262.78;;;15.53;100.00
27202;BME280;14717;46.924;15.474;2023-10-31T04:19:58;96263.66;;;15.57;100.00
27202;BME280;14717;46.924;15.474;2023-10-31T04:22:24;96263.59;;;15.53;100.00
27202;BME280;14717;46.924;15.474;2023-10-31T04:24:49;96273.53;;;15.54;100.00
27202;BME280;14717;46.924;15.474;2023-10-31T04:27:14;96282.78;;;15.58;100.00
27202;BME280;14717;46.924;15.474;2023-10-31T04:29:40;96266.97;;;15.62;100.00
27202;BME280;14717;46.924;15.474;2023-10-31T04:32:05;96261.84;;;15.64;100.00
27202;BME280;14717;46.924;15.474;2023-10-31T04:34:31;96252.75;;;15.67;100.00
27202;BME280;14717;46.924;15.474;2023-10-31T04:36:56;96248.75;;;15.65;100.00
27202;BME280;14717;46.924;15.474;2023-10-31T04:39:21;96251.25;;;15.70;100.00
27202;BME280;14717;46.924;15.474;2023-10-31T04:41:47;96258.19;;;15.60;100.00
27202;BME280;14717;46.924;15.474;2023-10-31T04:44:13;96258.38;;;15.52;100.00
27202;BME280;14717;46.924;15.474;2023-10-31T04:46:38;96261.56;;;15.35;100.00
27202;BME280;14717;46.924;15.474;2023-10-31T04:49:04;96256.72;;;15.32;100.00
27202;BME280;14717;46.924;15.474;2023-10-31T04:51:36;96249.28;;;15.21;100.00
27202;BME280;14717;46.924;15.474;2023-10-31T04:54:02;96260.84;;;15.07;100.00
27202;BME280;14717;46.924;15.474;2023-10-31T04:56:28;96259.59;;;15.05;100.00
27202;BME280;14717;46.924;15.474;2023-10-31T04:58:53;96268.56;;;14.98;100.00
27202;BME280;14717;46.924;15.474;2023-10-31T05:01:18;96275.81;;;15.03;100.00
27202;BME280;14717;46.924;15.474;2023-10-31T05:03:44;96281.91;;;15.08;100.00
27202;BME280;14717;46.924;15.474;2023-10-31T05:06:10;96285.25;;;15.14;100.00
27202;BME280;14717;46.924;15.474;2023-10-31T05:08:35;96280.16;;;15.00;100.00
27202;BME280;14717;46.924;15.474;2023-10-31T05:11:00;96285.59;;;14.82;100.00
27202;BME280;14717;46.924;15.474;2023-10-31T05:13:26;96287.22;;;14.83;100.00
27202;BME280;14717;46.924;15.474;2023-10-31T05:15:51;96296.38;;;14.83;100.00
27202;BME280;14717;46.924;15.474;2023-10-31T05:18:17;96300.50;;;14.89;100.00
27202;BME280;14717;46.924;15.474;2023-10-31T05:20:42;96296.91;;;14.88;100.00
27202;BME280;14717;46.924;15.474;2023-10-31T05:23:08;96292.03;;;14.55;100.00
27202;BME280;14717;46.924;15.474;2023-10-31T05:25:34;96303.41;;;14.50;100.00
27202;BME280;14717;46.924;15.474;2023-10-31T05:27:59;96303.16;;;14.55;100.00
27202;BME280;14717;46.924;15.474;2023-10-31T05:30:24;96312.00;;;14.45;100.00
27202;BME280;14717;46.924;15.474;2023-10-31T05:32:50;96319.31;;;14.38;100.00
27202;BME280;14717;46.924;15.474;2023-10-31T05:35:16;96324.53;;;14.39;100.00
27202;BME280;14717;46.924;15.474;2023-10-31T05:37:41;96324.53;;;14.39;100.00
27202;BME280;14717;46.924;15.474;2023-10-31T05:40:07;96323.25;;;14.21;100.00
27202;BME280;14717;46.924;15.474;2023-10-31T05:42:32;96315.84;;;14.13;100.00
27202;BME280;14717;46.924;15.474;2023-10-31T05:44:57;96328.63;;;14.30;100.00
27202;BME280;14717;46.924;15.474;2023-10-31T05:47:23;96322.25;;;14.29;100.00
27202;BME280;14717;46.924;15.474;2023-10-31T05:49:48;96330.91;;;14.12;100.00
27202;BME280;14717;46.924;15.474;2023-10-31T05:52:14;96358.53;;;14.21;100.00
27202;BME280;14717;46.924;15.474;2023-10-31T05:54:40;96351.38;;;14.20;100.00
27202;BME280;14717;46.924;15.474;2023-10-31T05:57:05;96333.78;;;14.16;100.00
27202;BME280;14717;46.924;15.474;2023-10-31T05:59:30;96335.31;;;14.13;100.00
27202;BME280;14717;46.924;15.474;2023-10-31T06:01:57;96326.72;;;14.18;100.00
27202;BME280;14717;46.924;15.474;2023-10-31T06:04:22;96306.81;;;14.16;100.00
27202;BME280;14717;46.924;15.474;2023-10-31T06:06:50;96294.97;;;14.19;100.00
27202;BME280;14717;46.924;15.474;2023-10-31T06:09:15;96302.38;;;14.27;100.00
27202;BME280;14717;46.924;15.474;2023-10-31T06:11:41;96321.75;;;14.39;100.00
27202;BME280;14717;46.924;15.474;2023-10-31T06:14:07;96311.63;;;14.31;100.00
27202;BME280;14717;46.924;15.474;2023-10-31T06:16:32;96308.84;;;14.31;100.00
27202;BME280;14717;46.924;15.474;2023-10-31T06:18:58;96304.59;;;14.22;100.00
27202;BME280;14717;46.924;15.474;2023-10-31T06:21:23;96327.72;;;14.26;100.00
27202;BME280;14717;46.924;15.474;2023-10-31T06:23:49;96332.97;;;14.15;100.00
27202;BME280;14717;46.924;15.474;2023-10-31T06:26:15;96344.72;;;14.24;100.00
27202;BME280;14717;46.924;15.474;2023-10-31T06:28:40;96349.53;;;14.12;100.00
27202;BME280;14717;46.924;15.474;2023-10-31T06:31:06;96352.56;;;14.07;100.00
27202;BME280;14717;46.924;15.474;2023-10-31T06:33:31;96347.09;;;14.10;100.00
27202;BME280;14717;46.924;15.474;2023-10-31T06:35:56;96344.19;;;14.19;100.00
27202;BME280;14717;46.924;15.474;2023-10-31T06:38:22;96341.06;;;14.20;100.00
27202;BME280;14717;46.924;15.474;2023-10-31T06:40:47;96357.72;;;14.20;100.00
27202;BME280;14717;46.924;15.474;2023-10-31T06:43:13;96358.38;;;14.29;100.00
27202;BME280;14717;46.924;15.474;2023-10-31T06:45:38;96360.28;;;14.41;100.00
27202;BME280;14717;46.924;15.474;2023-10-31T06:48:04;96338.91;;;14.41;100.00
27202;BME280;14717;46.924;15.474;2023-10-31T06:50:30;96332.22;;;14.30;100.00
27202;BME280;14717;46.924;15.474;2023-10-31T06:52:58;96352.56;;;14.34;100.00
27202;BME280;14717;46.924;15.474;2023-10-31T06:55:23;96350.47;;;14.43;100.00
27202;BME280;14717;46.924;15.474;2023-10-31T06:57:49;96341.69;;;14.41;100.00
27202;BME280;14717;46.924;15.474;2023-10-31T07:00:15;96342.28;;;14.35;100.00
27202;BME280;14717;46.924;15.474;2023-10-31T07:02:40;96341.25;;;14.27;100.00
27202;BME280;14717;46.924;15.474;2023-10-31T07:05:06;96342.88;;;14.28;100.00
27202;BME280;14717;46.924;15.474;2023-10-31T07:07:31;96348.88;;;14.30;100.00
27202;BME280;14717;46.924;15.474;2023-10-31T07:09:57;96362.78;;;14.30;100.00
27202;BME280;14717;46.924;15.474;2023-10-31T07:12:22;96363.44;;;14.39;100.00
27202;BME280;14717;46.924;15.474;2023-10-31T07:14:47;96380.00;;;14.36;100.00
27202;BME280;14717;46.924;15.474;2023-10-31T07:17:13;96391.00;;;14.32;100.00
27202;BME280;14717;46.924;15.474;2023-10-31T07:19:38;96372.94;;;14.38;100.00
27202;BME280;14717;46.924;15.474;2023-10-31T07:22:03;96381.97;;;14.35;100.00
27202;BME280;14717;46.924;15.474;2023-10-31T07:24:29;96389.16;;;14.36;100.00
27202;BME280;14717;46.924;15.474;2023-10-31T07:26:54;96380.94;;;14.28;100.00
27202;BME280;14717;46.924;15.474;2023-10-31T07:29:20;96377.41;;;14.15;100.00
27202;BME280;14717;46.924;15.474;2023-10-31T07:31:45;96365.66;;;14.06;100.00
27202;BME280;14717;46.924;15.474;2023-10-31T07:34:11;96369.13;;;14.04;100.00
27202;BME280;14717;46.924;15.474;2023-10-31T07:36:37;96354.75;;;14.02;100.00
27202;BME280;14717;46.924;15.474;2023-10-31T07:39:02;96342.25;;;13.96;100.00
27202;BME280;14717;46.924;15.474;2023-10-31T07:41:29;96327.66;;;14.10;100.00
27202;BME280;14717;46.924;15.474;2023-10-31T07:43:54;96323.25;;;14.21;100.00
27202;BME280;14717;46.924;15.474;2023-10-31T07:46:20;96312.69;;;14.27;100.00
27202;BME280;14717;46.924;15.474;2023-10-31T07:48:45;96310.44;;;14.32;100.00
27202;BME280;14717;46.924;15.474;2023-10-31T07:51:11;96305.75;;;14.21;100.00
27202;BME280;14717;46.924;15.474;2023-10-31T07:53:36;96315.28;;;14.08;100.00
27202;BME280;14717;46.924;15.474;2023-10-31T07:56:02;96321.63;;;14.20;100.00
27202;BME280;14717;46.924;15.474;2023-10-31T07:58:27;96331.97;;;14.35;100.00
27202;BME280;14717;46.924;15.474;2023-10-31T08:00:52;96331.91;;;14.47;100.00
27202;BME280;14717;46.924;15.474;2023-10-31T08:03:18;96339.28;;;14.55;100.00
27202;BME280;14717;46.924;15.474;2023-10-31T08:05:43;96339.03;;;14.60;100.00
27202;BME280;14717;46.924;15.474;2023-10-31T08:08:08;96332.84;;;14.66;100.00
27202;BME280;14717;46.924;15.474;2023-10-31T08:10:34;96348.22;;;14.76;100.00
27202;BME280;14717;46.924;15.474;2023-10-31T08:12:59;96333.84;;;14.74;100.00
27202;BME280;14717;46.924;15.474;2023-10-31T08:15:25;96335.47;;;14.75;100.00
27202;BME280;14717;46.924;15.474;2023-10-31T08:17:50;96342.66;;;14.76;100.00
27202;BME280;14717;46.924;15.474;2023-10-31T08:20:16;96344.16;;;14.73;100.00
27202;BME280;14717;46.924;15.474;2023-10-31T08:22:41;96352.06;;;14.71;100.00
27202;BME280;14717;46.924;15.474;2023-10-31T08:25:09;96337.53;;;14.78;100.00
27202;BME280;14717;46.924;15.474;2023-10-31T08:27:35;96340.75;;;14.80;100.00
27202;BME280;14717;46.924;15.474;2023-10-31T08:30:00;96328.50;;;14.81;100.00
27202;BME280;14717;46.924;15.474;2023-10-31T08:32:26;96336.63;;;14.74;100.00
27202;BME280;14717;46.924;15.474;2023-10-31T08:34:51;96341.03;;;14.75;100.00
27202;BME280;14717;46.924;15.474;2023-10-31T08:37:19;96359.34;;;14.76;100.00
27202;BME280;14717;46.924;15.474;2023-10-31T08:39:44;96363.72;;;14.77;100.00
27202;BME280;14717;46.924;15.474;2023-10-31T08:42:10;96364.41;;;14.74;100.00
27202;BME280;14717;46.924;15.474;2023-10-31T08:44:35;96367.41;;;14.81;100.00
27202;BME280;14717;46.924;15.474;2023-10-31T08:47:03;96364.91;;;14.76;100.00
27202;BME280;14717;46.924;15.474;2023-10-31T08:49:28;96361.63;;;14.74;100.00
27202;BME280;14717;46.924;15.474;2023-10-31T08:51:53;96356.06;;;14.74;100.00
27202;BME280;14717;46.924;15.474;2023-10-31T08:54:19;96357.91;;;14.82;100.00
27202;BME280;14717;46.924;15.474;2023-10-31T08:56:44;96358.50;;;14.75;100.00
27202;BME280;14717;46.924;15.474;2023-10-31T08:59:09;96338.69;;;14.77;100.00
27202;BME280;14717;46.924;15.474;2023-10-31T09:01:35;96348.72;;;14.66;100.00
27202;BME280;14717;46.924;15.474;2023-10-31T09:04:01;96339.13;;;14.63;100.00
27202;BME280;14717;46.924;15.474;2023-10-31T09:06:26;96339.22;;;14.67;100.00
27202;BME280;14717;46.924;15.474;2023-10-31T09:08:51;96353.81;;;14.64;100.00
27202;BME280;14717;46.924;15.474;2023-10-31T09:11:17;96355.00;;;14.63;100.00
27202;BME280;14717;46.924;15.474;2023-10-31T09:13:42;96352.13;;;14.59;100.00
27202;BME280;14717;46.924;15.474;2023-10-31T09:16:08;96356.50;;;14.60;100.00
27202;BME280;14717;46.924;15.474;2023-10-31T09:18:33;96358.47;;;14.60;100.00
27202;BME280;14717;46.924;15.474;2023-10-31T09:20:59;96375.09;;;14.72;100.00
27202;BME280;14717;46.924;15.474;2023-10-31T09:23:25;96372.31;;;14.72;100.00
27202;BME280;14717;46.924;15.474;2023-10-31T09:25:50;96365.50;;;14.69;100.00
27202;BME280;14717;46.924;15.474;2023-10-31T09:28:16;96374.28;;;14.71;100.00
27202;BME280;14717;46.924;15.474;2023-10-31T09:30:42;96404.41;;;14.69;100.00
27202;BME280;14717;46.924;15.474;2023-10-31T09:33:07;96453.63;;;14.69;100.00
27202;BME280;14717;46.924;15.474;2023-10-31T09:35:32;96477.25;;;14.75;100.00
27202;BME280;14717;46.924;15.474;2023-10-31T09:37:58;96518.31;;;14.54;100.00
27202;BME280;14717;46.924;15.474;2023-10-31T09:40:23;96517.19;;;14.19;100.00
27202;BME280;14717;46.924;15.474;2023-10-31T09:42:48;96528.41;;;14.23;100.00
27202;BME280;14717;46.924;15.474;2023-10-31T09:45:17;96534.53;;;14.40;100.00
27202;BME280;14717;46.924;15.474;2023-10-31T09:47:43;96539.06;;;14.45;100.00
27202;BME280;14717;46.924;15.474;2023-10-31T09:50:09;96544.75;;;14.36;100.00
27202;BME280;14717;46.924;15.474;2023-10-31T09:52:38;96548.69;;;14.35;100.00
27202;BME280;14717;46.924;15.474;2023-10-31T09:55:05;96536.53;;;14.16;100.00
27202;BME280;14717;46.924;15.474;2023-10-31T09:57:31;96538.03;;;14.02;100.00
27202;BME280;14717;46.924;15.474;2023-10-31T09:59:57;96553.06;;;14.01;100.00
27202;BME280;14717;46.924;15.474;2023-10-31T10:02:25;96546.81;;;13.92;100.00
27202;BME280;14717;46.924;15.474;2023-10-31T10:04:51;96538.22;;;13.85;100.00
27202;BME280;14717;46.924;15.474;2023-10-31T10:07:17;96539.13;;;13.77;100.00
27202;BME280;14717;46.924;15.474;2023-10-31T10:09:44;96532.09;;;13.67;100.00
27202;BME280;14717;46.924;15.474;2023-10-31T10:12:12;96510.66;;;13.56;100.00
27202;BME280;14717;46.924;15.474;2023-10-31T10:14:39;96509.94;;;13.47;100.00
27202;BME280;14717;46.924;15.474;2023-10-31T10:19:41;96519.09;;;13.48;100.00
27202;BME280;14717;46.924;15.474;2023-10-31T10:22:07;96529.59;;;13.42;100.00
27202;BME280;14717;46.924;15.474;2023-10-31T10:24:32;96533.53;;;13.41;100.00
27202;BME280;14717;46.924;15.474;2023-10-31T10:26:58;96552.06;;;13.49;100.00
27202;BME280;14717;46.924;15.474;2023-10-31T10:29:24;96544.06;;;13.48;100.00
27202;BME280;14717;46.924;15.474;2023-10-31T10:31:51;96571.63;;;13.64;100.00
27202;BME280;14717;46.924;15.474;2023-10-31T10:34:17;96555.09;;;13.68;100.00
27202;BME280;14717;46.924;15.474;2023-10-31T10:36:48;96540.50;;;13.59;100.00
27202;BME280;14717;46.924;15.474;2023-10-31T10:39:19;96481.50;;;13.50;100.00
27202;BME280;14717;46.924;15.474;2023-10-31T10:41:55;96472.97;;;13.43;100.00
27202;BME280;14717;46.924;15.474;2023-10-31T10:44:35;96510.22;;;13.54;100.00
27202;BME280;14717;46.924;15.474;2023-10-31T10:47:05;96504.69;;;13.78;100.00
27202;BME280;14717;46.924;15.474;2023-10-31T10:49:35;96466.72;;;13.70;100.00
27202;BME280;14717;46.924;15.474;2023-10-31T10:52:20;96429.50;;;13.59;100.00
27202;BME280;14717;46.924;15.474;2023-10-31T10:55:11;96394.94;;;13.45;100.00
27202;BME280;14717;46.924;15.474;2023-10-31T10:57:38;96376.56;;;13.40;100.00
27202;BME280;14717;46.924;15.474;2023-10-31T11:00:08;96406.59;;;13.38;100.00
27202;BME280;14717;46.924;15.474;2023-10-31T11:02:36;96431.13;;;13.36;100.00
27202;BME280;14717;46.924;15.474;2023-10-31T11:05:05;96446.13;;;13.35;100.00
27202;BME280;14717;46.924;15.474;2023-10-31T11:07:32;96446.59;;;13.37;100.00
27202;BME280;14717;46.924;15.474;2023-10-31T11:09:59;96440.47;;;13.32;100.00
27202;BME280;14717;46.924;15.474;2023-10-31T11:12:29;96452.34;;;13.32;100.00
27202;BME280;14717;46.924;15.474;2023-10-31T11:14:55;96451.22;;;13.33;100.00
27202;BME280;14717;46.924;15.474;2023-10-31T11:17:26;96452.13;;;13.37;100.00
27202;BME280;14717;46.924;15.474;2023-10-31T11:19:53;96456.06;;;13.36;100.00
27202;BME280;14717;46.924;15.474;2023-10-31T11:22:20;96463.22;;;13.37;100.00
27202;BME280;14717;46.924;15.474;2023-10-31T11:24:48;96480.94;;;13.45;100.00
27202;BME280;14717;46.924;15.474;2023-10-31T11:27:14;96505.66;;;13.38;100.00
27202;BME280;14717;46.924;15.474;2023-10-31T11:29:40;96513.09;;;13.46;100.00
27202;BME280;14717;46.924;15.474;2023-10-31T11:32:08;96532.97;;;13.48;100.00
27202;BME280;14717;46.924;15.474;2023-10-31T11:34:37;96552.50;;;13.39;100.00
27202;BME280;14717;46.924;15.474;2023-10-31T11:37:23;96567.25;;;13.31;100.00
27202;BME280;14717;46.924;15.474;2023-10-31T11:40:16;96555.75;;;13.53;100.00
27202;BME280;14717;46.924;15.474;2023-10-31T11:42:41;96551.16;;;13.69;100.00
27202;BME280;14717;46.924;15.474;2023-10-31T11:45:10;96560.28;;;13.69;100.00
27202;BME280;14717;46.924;15.474;2023-10-31T11:47:49;96556.72;;;13.69;100.00
27202;BME280;14717;46.924;15.474;2023-10-31T11:50:15;96548.63;;;13.64;100.00
27202;BME280;14717;46.924;15.474;2023-10-31T11:52:41;96537.97;;;13.54;100.00
27202;BME280;14717;46.924;15.474;2023-10-31T11:55:10;96543.50;;;13.54;100.00
27202;BME280;14717;46.924;15.474;2023-10-31T11:57:37;96565.72;;;13.54;100.00
27202;BME280;14717;46.924;15.474;2023-10-31T12:00:04;96546.88;;;13.60;98.12
27202;BME280;14717;46.924;15.474;2023-10-31T12:02:31;96547.88;;;13.43;100.00
27202;BME280;14717;46.924;15.474;2023-10-31T12:07:46;96564.25;;;13.36;95.53
27202;BME280;14717;46.924;15.474;2023-10-31T12:10:12;96565.63;;;13.30;94.28
27202;BME280;14717;46.924;15.474;2023-10-31T12:12:38;96558.31;;;13.26;94.25
27202;BME280;14717;46.924;15.474;2023-10-31T12:15:07;96569.78;;;13.24;96.95
27202;BME280;14717;46.924;15.474;2023-10-31T12:17:34;96568.34;;;13.18;95.15
27202;BME280;14717;46.924;15.474;2023-10-31T12:20:04;96571.13;;;13.18;96.47
27202;BME280;14717;46.924;15.474;2023-10-31T12:22:30;96583.09;;;13.11;95.45
27202;BME280;14717;46.924;15.474;2023-10-31T12:25:07;96596.72;;;13.04;95.98
27202;BME280;14717;46.924;15.474;2023-10-31T12:27:47;96588.34;;;12.92;93.71
27202;BME280;14717;46.924;15.474;2023-10-31T12:30:16;96597.06;;;12.82;92.78
27202;BME280;14717;46.924;15.474;2023-10-31T12:32:43;96595.41;;;12.81;97.58
27202;BME280;14717;46.924;15.474;2023-10-31T12:35:15;96611.09;;;12.77;97.72
27202;BME280;14717;46.924;15.474;2023-10-31T12:37:46;96613.59;;;12.70;97.14
27202;BME280;14717;46.924;15.474;2023-10-31T12:40:21;96622.84;;;12.74;98.18